sensor_id;sensor_type;location;lat;lon;timestamp;temperature;humidity
47765;DHT22;33529;49.242;8.670;2024-03-08T00:00:10;4.60;99.90
47765;DHT22;33529;49.242;8.670;2024-03-08T00:02:41;4.60;99.90
47765;DHT22;33529;49.242;8.670;2024-03-08T00:05:09;4.50;99.90
47765;DHT22;33529;49.242;8.670;2024-03-08T00:07:36;4.50;99.90
47765;DHT22;33529;49.242;8.670;2024-03-08T00:10:04;4.50;99.90
47765;DHT22;33529;49.242;8.670;2024-03-08T00:12:32;4.50;99.90
47765;DHT22;33529;49.242;8.670;2024-03-08T00:14:59;4.40;99.90
47765;DHT22;33529;49.242;8.670;2024-03-08T00:17:26;4.40;99.90
47765;DHT22;33529;49.242;8.670;2024-03-08T00:19:54;4.40;99.90
47765;DHT22;33529;49.242;8.670;2024-03-08T00:22:21;4.30;99.90
47765;DHT22;33529;49.242;8.670;2024-03-08T00:24:49;4.20;99.90
47765;DHT22;33529;49.242;8.670;2024-03-08T00:27:18;4.20;99.90
47765;DHT22;33529;49.242;8.670;2024-03-08T00:29:48;4.30;99.90
47765;DHT22;33529;49.242;8.670;2024-03-08T00:32:15;4.30;99.90
47765;DHT22;33529;49.242;8.670;2024-03-08T00:34:42;4.20;99.90
47765;DHT22;33529;49.242;8.670;2024-03-08T00:37:09;4.20;99.90
47765;DHT22;33529;49.242;8.670;2024-03-08T00:39:36;4.20;99.90
47765;DHT22;33529;49.242;8.670;2024-03-08T00:42:03;4.20;99.90
47765;DHT22;33529;49.242;8.670;2024-03-08T00:44:30;4.10;99.90
47765;DHT22;33529;49.242;8.670;2024-03-08T00:46:58;4.10;99.90
47765;DHT22;33529;49.242;8.670;2024-03-08T00:49:26;4.10;99.90
47765;DHT22;33529;49.242;8.670;2024-03-08T00:51:52;4.00;99.90
47765;DHT22;33529;49.242;8.670;2024-03-08T00:54:20;4.00;99.90
47765;DHT22;33529;49.242;8.670;2024-03-08T00:56:47;4.00;99.90
47765;DHT22;33529;49.242;8.670;2024-03-08T00:59:14;4.00;99.90
47765;DHT22;33529;49.242;8.670;2024-03-08T01:01:41;4.00;99.90
47765;DHT22;33529;49.242;8.670;2024-03-08T01:04:08;4.00;99.90
47765;DHT22;33529;49.242;8.670;2024-03-08T01:06:35;3.90;99.90
47765;DHT22;33529;49.242;8.670;2024-03-08T01:09:02;3.80;99.90
47765;DHT22;33529;49.242;8.670;2024-03-08T01:11:29;3.80;99.90
47765;DHT22;33529;49.242;8.670;2024-03-08T01:13:56;3.70;99.90
47765;DHT22;33529;49.242;8.670;2024-03-08T01:16:23;3.70;99.90
47765;DHT22;33529;49.242;8.670;2024-03-08T01:18:49;3.70;99.90
47765;DHT22;33529;49.242;8.670;2024-03-08T01:21:17;3.70;99.90
47765;DHT22;33529;49.242;8.670;2024-03-08T01:23:44;3.70;99.90
47765;DHT22;33529;49.242;8.670;2024-03-08T01:26:11;3.70;99.90
47765;DHT22;33529;49.242;8.670;2024-03-08T01:28:38;3.60;99.90
47765;DHT22;33529;49.242;8.670;2024-03-08T01:31:04;3.60;99.90
47765;DHT22;33529;49.242;8.670;2024-03-08T01:33:32;3.60;99.90
47765;DHT22;33529;49.242;8.670;2024-03-08T01:35:59;3.50;99.90
47765;DHT22;33529;49.242;8.670;2024-03-08T01:38:26;3.60;99.90
47765;DHT22;33529;49.242;8.670;2024-03-08T01:40:53;3.60;99.90
47765;DHT22;33529;49.242;8.670;2024-03-08T01:43:21;3.50;99.90
47765;DHT22;33529;49.242;8.670;2024-03-08T01:45:49;3.50;99.90
47765;DHT22;33529;49.242;8.670;2024-03-08T01:48:16;3.40;99.90
47765;DHT22;33529;49.242;8.670;2024-03-08T01:50:45;3.40;99.90
47765;DHT22;33529;49.242;8.670;2024-03-08T01:53:12;3.40;99.90
47765;DHT22;33529;49.242;8.670;2024-03-08T01:55:42;3.30;99.90
47765;DHT22;33529;49.242;8.670;2024-03-08T01:58:10;3.30;99.90
47765;DHT22;33529;49.242;8.670;2024-03-08T02:00:39;3.30;99.90
47765;DHT22;33529;49.242;8.670;2024-03-08T02:03:07;3.30;99.90
47765;DHT22;33529;49.242;8.670;2024-03-08T02:05:34;3.30;99.90
47765;DHT22;33529;49.242;8.670;2024-03-08T02:08:01;3.30;99.90
47765;DHT22;33529;49.242;8.670;2024-03-08T02:10:29;3.20;99.90
47765;DHT22;33529;49.242;8.670;2024-03-08T02:12:56;3.20;99.90
47765;DHT22;33529;49.242;8.670;2024-03-08T02:15:23;3.20;99.90
47765;DHT22;33529;49.242;8.670;2024-03-08T02:17:50;3.20;99.90
47765;DHT22;33529;49.242;8.670;2024-03-08T02:20:17;3.20;99.90
47765;DHT22;33529;49.242;8.670;2024-03-08T02:22:46;3.10;99.90
47765;DHT22;33529;49.242;8.670;2024-03-08T02:25:13;3.10;99.90
47765;DHT22;33529;49.242;8.670;2024-03-08T02:27:40;3.10;99.90
47765;DHT22;33529;49.242;8.670;2024-03-08T02:30:07;3.10;99.90
47765;DHT22;33529;49.242;8.670;2024-03-08T02:32:34;3.10;99.90
47765;DHT22;33529;49.242;8.670;2024-03-08T02:35:01;3.10;99.90
47765;DHT22;33529;49.242;8.670;2024-03-08T02:37:28;3.00;99.90
47765;DHT22;33529;49.242;8.670;2024-03-08T02:39:55;3.00;99.90
47765;DHT22;33529;49.242;8.670;2024-03-08T02:42:22;3.00;99.90
47765;DHT22;33529;49.242;8.670;2024-03-08T02:44:49;3.00;99.90
47765;DHT22;33529;49.242;8.670;2024-03-08T02:47:16;2.90;99.90
47765;DHT22;33529;49.242;8.670;2024-03-08T02:49:43;3.00;99.90
47765;DHT22;33529;49.242;8.670;2024-03-08T02:52:10;2.90;99.90
47765;DHT22;33529;49.242;8.670;2024-03-08T02:54:37;2.90;99.90
47765;DHT22;33529;49.242;8.670;2024-03-08T02:57:04;2.90;99.90
47765;DHT22;33529;49.242;8.670;2024-03-08T02:59:34;2.90;99.90
47765;DHT22;33529;49.242;8.670;2024-03-08T03:02:01;2.80;99.90
47765;DHT22;33529;49.242;8.670;2024-03-08T03:04:28;2.80;99.90
47765;DHT22;33529;49.242;8.670;2024-03-08T03:06:55;2.70;99.90
47765;DHT22;33529;49.242;8.670;2024-03-08T03:09:22;2.80;99.90
47765;DHT22;33529;49.242;8.670;2024-03-08T03:11:54;2.80;99.90
47765;DHT22;33529;49.242;8.670;2024-03-08T03:14:21;2.80;99.90
47765;DHT22;33529;49.242;8.670;2024-03-08T03:16:48;2.70;99.90
47765;DHT22;33529;49.242;8.670;2024-03-08T03:19:16;2.60;99.90
47765;DHT22;33529;49.242;8.670;2024-03-08T03:21:43;2.70;99.90
47765;DHT22;33529;49.242;8.670;2024-03-08T03:24:12;2.60;99.90
47765;DHT22;33529;49.242;8.670;2024-03-08T03:26:43;2.70;99.90
47765;DHT22;33529;49.242;8.670;2024-03-08T03:29:10;2.70;99.90
47765;DHT22;33529;49.242;8.670;2024-03-08T03:31:40;2.60;99.90
47765;DHT22;33529;49.242;8.670;2024-03-08T03:34:07;2.60;99.90
47765;DHT22;33529;49.242;8.670;2024-03-08T03:36:37;2.70;99.90
47765;DHT22;33529;49.242;8.670;2024-03-08T03:39:04;2.60;99.90
47765;DHT22;33529;49.242;8.670;2024-03-08T03:41:43;2.60;99.90
47765;DHT22;33529;49.242;8.670;2024-03-08T03:44:13;2.60;99.90
47765;DHT22;33529;49.242;8.670;2024-03-08T03:46:43;2.60;99.90
47765;DHT22;33529;49.242;8.670;2024-03-08T03:49:11;2.60;99.90
47765;DHT22;33529;49.242;8.670;2024-03-08T03:51:38;2.50;99.90
47765;DHT22;33529;49.242;8.670;2024-03-08T03:54:05;2.50;99.90
47765;DHT22;33529;49.242;8.670;2024-03-08T03:56:32;2.50;99.90
47765;DHT22;33529;49.242;8.670;2024-03-08T03:58:59;2.50;99.90
47765;DHT22;33529;49.242;8.670;2024-03-08T04:01:26;2.40;99.90
47765;DHT22;33529;49.242;8.670;2024-03-08T04:03:53;2.40;99.90
47765;DHT22;33529;49.242;8.670;2024-03-08T04:06:20;2.40;99.90
47765;DHT22;33529;49.242;8.670;2024-03-08T04:08:49;2.40;99.90
47765;DHT22;33529;49.242;8.670;2024-03-08T04:11:16;2.40;99.90
47765;DHT22;33529;49.242;8.670;2024-03-08T04:13:43;2.40;99.90
47765;DHT22;33529;49.242;8.670;2024-03-08T04:16:10;2.40;99.90
47765;DHT22;33529;49.242;8.670;2024-03-08T04:18:38;2.40;99.90
47765;DHT22;33529;49.242;8.670;2024-03-08T04:21:05;2.40;99.90
47765;DHT22;33529;49.242;8.670;2024-03-08T04:23:35;2.40;99.90
47765;DHT22;33529;49.242;8.670;2024-03-08T04:26:03;2.40;99.90
47765;DHT22;33529;49.242;8.670;2024-03-08T04:28:31;2.40;99.90
47765;DHT22;33529;49.242;8.670;2024-03-08T04:30:58;2.40;99.90
47765;DHT22;33529;49.242;8.670;2024-03-08T04:33:27;2.30;99.90
47765;DHT22;33529;49.242;8.670;2024-03-08T04:35:54;2.30;99.90
47765;DHT22;33529;49.242;8.670;2024-03-08T04:38:22;2.30;99.90
47765;DHT22;33529;49.242;8.670;2024-03-08T04:40:49;2.30;99.90
47765;DHT22;33529;49.242;8.670;2024-03-08T04:43:17;2.30;99.90
47765;DHT22;33529;49.242;8.670;2024-03-08T04:45:45;2.30;99.90
47765;DHT22;33529;49.242;8.670;2024-03-08T04:48:12;2.30;99.90
47765;DHT22;33529;49.242;8.670;2024-03-08T04:50:39;2.30;99.90
47765;DHT22;33529;49.242;8.670;2024-03-08T04:53:06;2.30;99.90
47765;DHT22;33529;49.242;8.670;2024-03-08T04:55:35;2.30;99.90
47765;DHT22;33529;49.242;8.670;2024-03-08T04:58:02;2.30;99.90
47765;DHT22;33529;49.242;8.670;2024-03-08T05:00:30;2.20;99.90
47765;DHT22;33529;49.242;8.670;2024-03-08T05:02:57;2.30;99.90
47765;DHT22;33529;49.242;8.670;2024-03-08T05:05:25;2.30;99.90
47765;DHT22;33529;49.242;8.670;2024-03-08T05:07:52;2.20;99.90
47765;DHT22;33529;49.242;8.670;2024-03-08T05:10:20;2.20;99.90
47765;DHT22;33529;49.242;8.670;2024-03-08T05:12:46;2.30;99.90
47765;DHT22;33529;49.242;8.670;2024-03-08T05:15:13;2.30;99.90
47765;DHT22;33529;49.242;8.670;2024-03-08T05:17:41;2.30;99.90
47765;DHT22;33529;49.242;8.670;2024-03-08T05:20:08;2.30;99.90
47765;DHT22;33529;49.242;8.670;2024-03-08T05:22:39;2.20;99.90
47765;DHT22;33529;49.242;8.670;2024-03-08T05:25:07;2.20;99.90
47765;DHT22;33529;49.242;8.670;2024-03-08T05:27:37;2.20;99.90
47765;DHT22;33529;49.242;8.670;2024-03-08T05:30:04;2.20;99.90
47765;DHT22;33529;49.242;8.670;2024-03-08T05:32:32;2.10;99.90
47765;DHT22;33529;49.242;8.670;2024-03-08T05:34:59;2.20;99.90
47765;DHT22;33529;49.242;8.670;2024-03-08T05:37:26;2.20;99.90
47765;DHT22;33529;49.242;8.670;2024-03-08T05:39:52;2.20;99.90
47765;DHT22;33529;49.242;8.670;2024-03-08T05:42:21;2.20;99.90
47765;DHT22;33529;49.242;8.670;2024-03-08T05:44:48;2.20;99.90
47765;DHT22;33529;49.242;8.670;2024-03-08T05:47:16;2.20;99.90
47765;DHT22;33529;49.242;8.670;2024-03-08T05:49:43;2.20;99.90
47765;DHT22;33529;49.242;8.670;2024-03-08T05:52:11;2.20;99.90
47765;DHT22;33529;49.242;8.670;2024-03-08T05:54:38;2.10;99.90
47765;DHT22;33529;49.242;8.670;2024-03-08T05:57:05;2.10;99.90
47765;DHT22;33529;49.242;8.670;2024-03-08T05:59:33;2.10;99.90
47765;DHT22;33529;49.242;8.670;2024-03-08T06:02:00;2.20;99.90
47765;DHT22;33529;49.242;8.670;2024-03-08T06:04:27;2.20;99.90
47765;DHT22;33529;49.242;8.670;2024-03-08T06:06:55;2.10;99.90
47765;DHT22;33529;49.242;8.670;2024-03-08T06:09:27;2.10;99.90
47765;DHT22;33529;49.242;8.670;2024-03-08T06:11:54;2.10;99.90
47765;DHT22;33529;49.242;8.670;2024-03-08T06:14:21;2.10;99.90
47765;DHT22;33529;49.242;8.670;2024-03-08T06:16:49;2.00;99.90
47765;DHT22;33529;49.242;8.670;2024-03-08T06:19:17;2.10;99.90
47765;DHT22;33529;49.242;8.670;2024-03-08T06:21:44;2.10;99.90
47765;DHT22;33529;49.242;8.670;2024-03-08T06:24:11;2.20;99.90
47765;DHT22;33529;49.242;8.670;2024-03-08T06:26:38;2.20;99.90
47765;DHT22;33529;49.242;8.670;2024-03-08T06:29:05;2.20;99.90
47765;DHT22;33529;49.242;8.670;2024-03-08T06:31:35;2.30;99.90
47765;DHT22;33529;49.242;8.670;2024-03-08T06:34:06;2.30;99.90
47765;DHT22;33529;49.242;8.670;2024-03-08T06:36:35;2.30;99.90
47765;DHT22;33529;49.242;8.670;2024-03-08T06:39:05;2.30;99.90
47765;DHT22;33529;49.242;8.670;2024-03-08T06:41:37;2.30;99.90
47765;DHT22;33529;49.242;8.670;2024-03-08T06:44:04;2.30;99.90
47765;DHT22;33529;49.242;8.670;2024-03-08T06:46:31;2.30;99.90
47765;DHT22;33529;49.242;8.670;2024-03-08T06:48:58;2.40;99.90
47765;DHT22;33529;49.242;8.670;2024-03-08T06:51:25;2.40;99.90
47765;DHT22;33529;49.242;8.670;2024-03-08T06:53:52;2.50;99.90
47765;DHT22;33529;49.242;8.670;2024-03-08T06:56:19;2.60;99.90
47765;DHT22;33529;49.242;8.670;2024-03-08T06:58:47;2.60;99.90
47765;DHT22;33529;49.242;8.670;2024-03-08T07:01:15;2.60;99.90
47765;DHT22;33529;49.242;8.670;2024-03-08T07:03:43;2.60;99.90
47765;DHT22;33529;49.242;8.670;2024-03-08T07:06:11;2.70;99.90
47765;DHT22;33529;49.242;8.670;2024-03-08T07:08:38;2.70;99.90
47765;DHT22;33529;49.242;8.670;2024-03-08T07:11:05;2.80;99.90
47765;DHT22;33529;49.242;8.670;2024-03-08T07:13:32;2.80;99.90
47765;DHT22;33529;49.242;8.670;2024-03-08T07:15:59;2.90;99.90
47765;DHT22;33529;49.242;8.670;2024-03-08T07:18:27;2.90;99.90
47765;DHT22;33529;49.242;8.670;2024-03-08T07:20:57;3.00;99.90
47765;DHT22;33529;49.242;8.670;2024-03-08T07:23:24;3.10;99.90
47765;DHT22;33529;49.242;8.670;2024-03-08T07:26:09;3.10;99.90
47765;DHT22;33529;49.242;8.670;2024-03-08T07:28:36;3.20;99.90
47765;DHT22;33529;49.242;8.670;2024-03-08T07:31:05;3.20;99.90
47765;DHT22;33529;49.242;8.670;2024-03-08T07:33:48;3.30;99.90
47765;DHT22;33529;49.242;8.670;2024-03-08T07:36:17;3.40;99.90
47765;DHT22;33529;49.242;8.670;2024-03-08T07:38:44;3.50;99.90
47765;DHT22;33529;49.242;8.670;2024-03-08T07:41:15;3.60;99.90
47765;DHT22;33529;49.242;8.670;2024-03-08T07:43:42;3.70;99.90
47765;DHT22;33529;49.242;8.670;2024-03-08T07:46:11;3.80;99.90
47765;DHT22;33529;49.242;8.670;2024-03-08T07:48:40;3.90;99.90
47765;DHT22;33529;49.242;8.670;2024-03-08T07:51:07;3.90;99.90
47765;DHT22;33529;49.242;8.670;2024-03-08T07:53:38;4.00;99.90
47765;DHT22;33529;49.242;8.670;2024-03-08T07:56:05;4.10;99.90
47765;DHT22;33529;49.242;8.670;2024-03-08T07:58:32;4.10;99.90
47765;DHT22;33529;49.242;8.670;2024-03-08T08:01:04;4.10;99.90
47765;DHT22;33529;49.242;8.670;2024-03-08T08:03:31;4.20;99.90
47765;DHT22;33529;49.242;8.670;2024-03-08T08:05:58;4.20;99.90
47765;DHT22;33529;49.242;8.670;2024-03-08T08:08:27;4.30;99.90
47765;DHT22;33529;49.242;8.670;2024-03-08T08:10:54;4.20;99.90
47765;DHT22;33529;49.242;8.670;2024-03-08T08:13:21;4.30;99.90
47765;DHT22;33529;49.242;8.670;2024-03-08T08:15:49;4.30;99.90
47765;DHT22;33529;49.242;8.670;2024-03-08T08:18:16;4.30;99.90
47765;DHT22;33529;49.242;8.670;2024-03-08T08:20:44;4.50;99.90
47765;DHT22;33529;49.242;8.670;2024-03-08T08:23:11;4.60;99.90
47765;DHT22;33529;49.242;8.670;2024-03-08T08:25:38;4.70;99.90
47765;DHT22;33529;49.242;8.670;2024-03-08T08:28:05;4.80;99.90
47765;DHT22;33529;49.242;8.670;2024-03-08T08:30:32;5.00;99.90
47765;DHT22;33529;49.242;8.670;2024-03-08T08:32:59;5.00;99.90
47765;DHT22;33529;49.242;8.670;2024-03-08T08:35:28;5.10;99.90
47765;DHT22;33529;49.242;8.670;2024-03-08T08:37:55;5.30;99.90
47765;DHT22;33529;49.242;8.670;2024-03-08T08:40:23;5.30;99.90
47765;DHT22;33529;49.242;8.670;2024-03-08T08:42:53;5.40;99.90
47765;DHT22;33529;49.242;8.670;2024-03-08T08:45:20;5.50;99.90
47765;DHT22;33529;49.242;8.670;2024-03-08T08:47:52;5.70;99.90
47765;DHT22;33529;49.242;8.670;2024-03-08T08:50:19;5.80;99.90
47765;DHT22;33529;49.242;8.670;2024-03-08T08:52:50;5.90;99.90
47765;DHT22;33529;49.242;8.670;2024-03-08T08:55:18;6.00;99.90
47765;DHT22;33529;49.242;8.670;2024-03-08T08:57:48;6.00;99.90
47765;DHT22;33529;49.242;8.670;2024-03-08T09:00:16;5.90;99.90
47765;DHT22;33529;49.242;8.670;2024-03-08T09:02:43;6.00;99.90
47765;DHT22;33529;49.242;8.670;2024-03-08T09:05:10;6.10;99.90
47765;DHT22;33529;49.242;8.670;2024-03-08T09:07:43;6.10;99.90
47765;DHT22;33529;49.242;8.670;2024-03-08T09:10:14;6.10;99.90
47765;DHT22;33529;49.242;8.670;2024-03-08T09:12:44;6.10;99.90
47765;DHT22;33529;49.242;8.670;2024-03-08T09:15:11;6.20;99.90
47765;DHT22;33529;49.242;8.670;2024-03-08T09:17:39;6.20;99.90
47765;DHT22;33529;49.242;8.670;2024-03-08T09:20:10;6.40;99.90
47765;DHT22;33529;49.242;8.670;2024-03-08T09:22:38;6.40;99.90
47765;DHT22;33529;49.242;8.670;2024-03-08T09:25:08;6.50;99.90
47765;DHT22;33529;49.242;8.670;2024-03-08T09:27:36;6.50;99.90
47765;DHT22;33529;49.242;8.670;2024-03-08T09:30:06;6.50;99.90
47765;DHT22;33529;49.242;8.670;2024-03-08T09:32:34;6.50;99.90
47765;DHT22;33529;49.242;8.670;2024-03-08T09:35:02;6.50;99.90
47765;DHT22;33529;49.242;8.670;2024-03-08T09:37:29;6.50;99.90
47765;DHT22;33529;49.242;8.670;2024-03-08T09:39:57;6.50;99.90
47765;DHT22;33529;49.242;8.670;2024-03-08T09:42:26;6.70;99.90
47765;DHT22;33529;49.242;8.670;2024-03-08T09:44:53;6.70;99.90
47765;DHT22;33529;49.242;8.670;2024-03-08T09:47:22;6.50;99.90
47765;DHT22;33529;49.242;8.670;2024-03-08T09:49:51;6.70;99.90
47765;DHT22;33529;49.242;8.670;2024-03-08T09:52:20;6.90;99.90
47765;DHT22;33529;49.242;8.670;2024-03-08T09:54:47;7.10;99.90
47765;DHT22;33529;49.242;8.670;2024-03-08T09:57:14;7.20;99.90
47765;DHT22;33529;49.242;8.670;2024-03-08T09:59:44;7.20;99.90
47765;DHT22;33529;49.242;8.670;2024-03-08T10:02:16;7.20;99.90
47765;DHT22;33529;49.242;8.670;2024-03-08T10:04:44;7.20;99.90
47765;DHT22;33529;49.242;8.670;2024-03-08T10:07:14;7.20;99.90
47765;DHT22;33529;49.242;8.670;2024-03-08T10:09:41;7.30;99.90
47765;DHT22;33529;49.242;8.670;2024-03-08T10:12:18;7.20;99.90
47765;DHT22;33529;49.242;8.670;2024-03-08T10:14:46;7.30;99.90
47765;DHT22;33529;49.242;8.670;2024-03-08T10:17:13;7.30;99.90
47765;DHT22;33529;49.242;8.670;2024-03-08T10:19:49;7.30;99.90
47765;DHT22;33529;49.242;8.670;2024-03-08T10:22:18;7.30;99.90
47765;DHT22;33529;49.242;8.670;2024-03-08T10:24:46;7.40;99.90
47765;DHT22;33529;49.242;8.670;2024-03-08T10:27:13;7.30;99.90
47765;DHT22;33529;49.242;8.670;2024-03-08T10:29:42;7.20;99.90
47765;DHT22;33529;49.242;8.670;2024-03-08T10:32:10;7.20;99.90
47765;DHT22;33529;49.242;8.670;2024-03-08T10:34:38;7.20;99.90
47765;DHT22;33529;49.242;8.670;2024-03-08T10:37:07;7.30;99.90
47765;DHT22;33529;49.242;8.670;2024-03-08T10:39:39;7.30;99.90
47765;DHT22;33529;49.242;8.670;2024-03-08T10:42:12;7.40;99.90
47765;DHT22;33529;49.242;8.670;2024-03-08T10:45:44;7.30;99.90
47765;DHT22;33529;49.242;8.670;2024-03-08T10:47:49;7.30;99.90
47765;DHT22;33529;49.242;8.670;2024-03-08T10:50:20;7.10;99.90
47765;DHT22;33529;49.242;8.670;2024-03-08T10:52:52;7.20;99.90
47765;DHT22;33529;49.242;8.670;2024-03-08T10:55:19;7.10;99.90
47765;DHT22;33529;49.242;8.670;2024-03-08T10:57:47;7.30;99.90
47765;DHT22;33529;49.242;8.670;2024-03-08T11:00:14;7.50;99.90
47765;DHT22;33529;49.242;8.670;2024-03-08T11:02:45;7.40;99.90
47765;DHT22;33529;49.242;8.670;2024-03-08T11:05:37;7.80;99.90
47765;DHT22;33529;49.242;8.670;2024-03-08T11:10:54;8.00;99.90
47765;DHT22;33529;49.242;8.670;2024-03-08T11:13:40;8.10;99.90
47765;DHT22;33529;49.242;8.670;2024-03-08T11:16:09;8.20;99.90
47765;DHT22;33529;49.242;8.670;2024-03-08T11:18:37;8.40;99.90
47765;DHT22;33529;49.242;8.670;2024-03-08T11:21:06;8.30;99.90
47765;DHT22;33529;49.242;8.670;2024-03-08T11:23:39;8.40;99.90
47765;DHT22;33529;49.242;8.670;2024-03-08T11:26:24;8.40;99.90
47765;DHT22;33529;49.242;8.670;2024-03-08T11:28:51;8.30;99.90
47765;DHT22;33529;49.242;8.670;2024-03-08T11:31:23;8.30;99.90
47765;DHT22;33529;49.242;8.670;2024-03-08T11:33:51;8.30;99.90
47765;DHT22;33529;49.242;8.670;2024-03-08T11:36:22;8.40;99.90
47765;DHT22;33529;49.242;8.670;2024-03-08T11:38:50;8.10;99.90
47765;DHT22;33529;49.242;8.670;2024-03-08T11:41:20;8.10;99.90
47765;DHT22;33529;49.242;8.670;2024-03-08T11:43:48;8.10;99.90
47765;DHT22;33529;49.242;8.670;2024-03-08T11:46:16;8.30;99.90
47765;DHT22;33529;49.242;8.670;2024-03-08T11:48:47;8.50;99.90
47765;DHT22;33529;49.242;8.670;2024-03-08T11:51:15;8.50;99.90
47765;DHT22;33529;49.242;8.670;2024-03-08T11:53:42;8.50;99.90
47765;DHT22;33529;49.242;8.670;2024-03-08T11:56:14;8.40;99.90
47765;DHT22;33529;49.242;8.670;2024-03-08T11:58:41;8.40;99.90
47765;DHT22;33529;49.242;8.670;2024-03-08T12:01:10;8.20;99.90
47765;DHT22;33529;49.242;8.670;2024-03-08T12:03:40;8.10;99.90
47765;DHT22;33529;49.242;8.670;2024-03-08T12:06:10;8.10;99.90
47765;DHT22;33529;49.242;8.670;2024-03-08T12:08:36;8.00;99.90
47765;DHT22;33529;49.242;8.670;2024-03-08T12:11:04;8.00;99.90
47765;DHT22;33529;49.242;8.670;2024-03-08T12:13:32;7.90;99.90
47765;DHT22;33529;49.242;8.670;2024-03-08T12:16:04;8.10;99.90
47765;DHT22;33529;49.242;8.670;2024-03-08T12:18:36;8.00;99.90
47765;DHT22;33529;49.242;8.670;2024-03-08T12:23:35;8.00;99.90
47765;DHT22;33529;49.242;8.670;2024-03-08T12:26:15;8.00;99.90
47765;DHT22;33529;49.242;8.670;2024-03-08T12:28:44;7.90;99.90
47765;DHT22;33529;49.242;8.670;2024-03-08T12:31:16;8.00;99.90
47765;DHT22;33529;49.242;8.670;2024-03-08T12:33:54;8.20;99.90
47765;DHT22;33529;49.242;8.670;2024-03-08T12:36:24;8.50;99.90
47765;DHT22;33529;49.242;8.670;2024-03-08T12:38:53;8.50;99.90
47765;DHT22;33529;49.242;8.670;2024-03-08T12:41:21;8.40;99.90
47765;DHT22;33529;49.242;8.670;2024-03-08T12:43:48;8.40;99.90
47765;DHT22;33529;49.242;8.670;2024-03-08T12:46:20;8.50;99.90
47765;DHT22;33529;49.242;8.670;2024-03-08T12:48:48;8.50;99.90
47765;DHT22;33529;49.242;8.670;2024-03-08T12:51:18;8.50;99.90
47765;DHT22;33529;49.242;8.670;2024-03-08T12:53:45;8.40;99.90
47765;DHT22;33529;49.242;8.670;2024-03-08T12:56:28;8.30;99.90
47765;DHT22;33529;49.242;8.670;2024-03-08T12:58:55;8.40;99.90
47765;DHT22;33529;49.242;8.670;2024-03-08T13:01:24;8.40;99.90
47765;DHT22;33529;49.242;8.670;2024-03-08T13:03:51;8.40;99.90
47765;DHT22;33529;49.242;8.670;2024-03-08T13:06:18;8.50;99.90
47765;DHT22;33529;49.242;8.670;2024-03-08T13:08:46;8.50;99.90
47765;DHT22;33529;49.242;8.670;2024-03-08T13:11:13;8.50;99.90
47765;DHT22;33529;49.242;8.670;2024-03-08T13:13:40;8.70;99.90
47765;DHT22;33529;49.242;8.670;2024-03-08T13:16:08;8.70;99.90
47765;DHT22;33529;49.242;8.670;2024-03-08T13:18:35;8.90;99.90
47765;DHT22;33529;49.242;8.670;2024-03-08T13:21:03;9.00;99.90
47765;DHT22;33529;49.242;8.670;2024-03-08T13:23:34;8.90;99.90
47765;DHT22;33529;49.242;8.670;2024-03-08T13:26:10;9.00;99.90
47765;DHT22;33529;49.242;8.670;2024-03-08T13:28:48;9.00;99.90
47765;DHT22;33529;49.242;8.670;2024-03-08T13:31:21;9.00;99.90
47765;DHT22;33529;49.242;8.670;2024-03-08T13:33:48;9.10;99.90
47765;DHT22;33529;49.242;8.670;2024-03-08T13:36:16;9.10;99.90
47765;DHT22;33529;49.242;8.670;2024-03-08T13:38:44;9.20;99.90
47765;DHT22;33529;49.242;8.670;2024-03-08T13:41:11;9.30;99.90
47765;DHT22;33529;49.242;8.670;2024-03-08T13:43:46;9.10;99.90
47765;DHT22;33529;49.242;8.670;2024-03-08T13:46:13;9.10;99.90
47765;DHT22;33529;49.242;8.670;2024-03-08T13:48:40;9.20;99.90
47765;DHT22;33529;49.242;8.670;2024-03-08T13:51:08;9.20;99.90
47765;DHT22;33529;49.242;8.670;2024-03-08T13:53:39;9.20;99.90
47765;DHT22;33529;49.242;8.670;2024-03-08T13:56:08;9.30;99.90
47765;DHT22;33529;49.242;8.670;2024-03-08T13:58:37;9.30;99.90
47765;DHT22;33529;49.242;8.670;2024-03-08T14:01:07;9.30;99.90
47765;DHT22;33529;49.242;8.670;2024-03-08T14:03:38;9.40;99.90
47765;DHT22;33529;49.242;8.670;2024-03-08T14:06:09;9.40;99.90
47765;DHT22;33529;49.242;8.670;2024-03-08T14:08:36;9.40;99.90
47765;DHT22;33529;49.242;8.670;2024-03-08T14:11:06;9.50;99.90
47765;DHT22;33529;49.242;8.670;2024-03-08T14:13:46;9.60;99.90
47765;DHT22;33529;49.242;8.670;2024-03-08T14:16:14;9.70;99.90
47765;DHT22;33529;49.242;8.670;2024-03-08T14:18:42;9.60;99.90
47765;DHT22;33529;49.242;8.670;2024-03-08T14:21:09;9.70;99.90
47765;DHT22;33529;49.242;8.670;2024-03-08T14:23:37;9.70;99.90
47765;DHT22;33529;49.242;8.670;2024-03-08T14:26:04;9.70;99.90
47765;DHT22;33529;49.242;8.670;2024-03-08T14:28:34;9.70;99.90
47765;DHT22;33529;49.242;8.670;2024-03-08T14:31:01;9.80;99.90
47765;DHT22;33529;49.242;8.670;2024-03-08T14:33:33;9.90;99.90
47765;DHT22;33529;49.242;8.670;2024-03-08T14:36:00;9.90;99.90
47765;DHT22;33529;49.242;8.670;2024-03-08T14:38:27;10.00;99.90
47765;DHT22;33529;49.242;8.670;2024-03-08T14:40:54;9.90;99.90
47765;DHT22;33529;49.242;8.670;2024-03-08T14:43:22;10.10;99.90
47765;DHT22;33529;49.242;8.670;2024-03-08T14:45:49;10.10;99.90
47765;DHT22;33529;49.242;8.670;2024-03-08T14:48:17;10.10;99.90
47765;DHT22;33529;49.242;8.670;2024-03-08T14:50:45;10.00;99.90
47765;DHT22;33529;49.242;8.670;2024-03-08T14:53:14;10.10;99.90
47765;DHT22;33529;49.242;8.670;2024-03-08T14:55:43;10.10;99.90
47765;DHT22;33529;49.242;8.670;2024-03-08T14:58:14;10.10;99.90
47765;DHT22;33529;49.242;8.670;2024-03-08T15:00:41;10.10;99.90
47765;DHT22;33529;49.242;8.670;2024-03-08T15:03:08;10.20;99.90
47765;DHT22;33529;49.242;8.670;2024-03-08T15:05:39;10.30;99.90
47765;DHT22;33529;49.242;8.670;2024-03-08T15:08:09;10.30;99.90
47765;DHT22;33529;49.242;8.670;2024-03-08T15:10:38;10.30;99.90
47765;DHT22;33529;49.242;8.670;2024-03-08T15:13:08;10.20;99.90
47765;DHT22;33529;49.242;8.670;2024-03-08T15:15:42;10.20;99.90
47765;DHT22;33529;49.242;8.670;2024-03-08T15:18:12;10.20;99.90
47765;DHT22;33529;49.242;8.670;2024-03-08T15:20:39;10.30;99.90
47765;DHT22;33529;49.242;8.670;2024-03-08T15:23:08;10.30;99.90
47765;DHT22;33529;49.242;8.670;2024-03-08T15:25:36;10.30;99.90
47765;DHT22;33529;49.242;8.670;2024-03-08T15:28:05;10.30;99.90
47765;DHT22;33529;49.242;8.670;2024-03-08T15:30:40;10.30;99.90
47765;DHT22;33529;49.242;8.670;2024-03-08T15:33:13;10.20;99.90
47765;DHT22;33529;49.242;8.670;2024-03-08T15:35:42;10.30;99.90
47765;DHT22;33529;49.242;8.670;2024-03-08T15:38:13;10.30;99.90
47765;DHT22;33529;49.242;8.670;2024-03-08T15:40:42;10.20;99.90
47765;DHT22;33529;49.242;8.670;2024-03-08T15:43:08;10.20;99.90
47765;DHT22;33529;49.242;8.670;2024-03-08T15:45:35;10.20;99.90
47765;DHT22;33529;49.242;8.670;2024-03-08T15:48:04;10.10;99.90
47765;DHT22;33529;49.242;8.670;2024-03-08T15:50:32;10.10;99.90
47765;DHT22;33529;49.242;8.670;2024-03-08T15:53:02;10.20;99.90
47765;DHT22;33529;49.242;8.670;2024-03-08T15:55:31;10.20;99.90
47765;DHT22;33529;49.242;8.670;2024-03-08T15:57:58;10.20;99.90